MiSS Margy — WCY2616 — position and weather

sailwx.info

Track history (hours):
 
Tides and Currents Weather Stations Pressure Air Temp Water Temp Dewpoint Dewpoint Depression Visibility Wind Speed Wind Dir Waves Ship Positions

MiSS Margy

Owner: SHEPLERS INC, MACKINAW CITY, MI. More information available from US FCC via Universal Licensing System.

Last reported at 2017-Oct-31 21:31 UTC. Time now 2017-Nov-25 04:09 UTC.
Position N 45°48' W 084°42'.
Warning: this ship's position is 24 days out of date.

Type: Passenger vessel. MMSI: 367721890.

Date/timePositionNaut miles runAvg speedWind from/ knotsBaromVisibWave heightAir tempDewpointWater temp
2017-Oct-31 21:31N 45°48' W 084°42'127.4
2017-Oct-31 21:30N 45°49' W 084°42'1 0.2
2017-Oct-31 13:46N 45°48' W 084°42'0 0.5
2017-Oct-31 13:05N 45°48' W 084°43'0 0.5
2017-Oct-31 12:18N 45°47' W 084°43'511.2
2017-Oct-31 11:48N 45°51' W 084°37'5 0.4
2017-Oct-30 21:17N 45°47' W 084°42'511.9
2017-Oct-30 20:50N 45°51' W 084°37'6 9.8
2017-Oct-30 20:16N 45°47' W 084°43'511.3
2017-Oct-30 19:47N 45°51' W 084°37'612.1
2017-Oct-30 19:20N 45°47' W 084°43'6 2.2
2017-Oct-30 16:48N 45°51' W 084°37'5 2.2
2017-Oct-30 14:35N 45°48' W 084°42'1 0.9
2017-Oct-30 13:54N 45°47' W 084°43'1 0.1
2017-Oct-29 23:12N 45°48' W 084°42'0 0.4
2017-Oct-29 22:14N 45°48' W 084°42'512.0
2017-Oct-29 21:49N 45°51' W 084°37'5 8.5
2017-Oct-29 21:14N 45°48' W 084°42'1 0.4
2017-Oct-29 19:15N 45°48' W 084°42'1 0.6
2017-Oct-29 18:16N 45°48' W 084°41'1 0.8
2017-Oct-29 16:47N 45°48' W 084°42'4 2.8
2017-Oct-29 15:17N 45°51' W 084°39'412.9
2017-Oct-29 14:56N 45°48' W 084°42'562.9
2017-Oct-29 14:52N 45°51' W 084°37'551.4
2017-Oct-29 14:46N 45°49' W 084°43'2 3.2
2017-Oct-29 14:15N 45°47' W 084°42'0 1.2
2017-Oct-29 13:57N 45°47' W 084°43'542.5
2017-Oct-29 13:51N 45°51' W 084°40'231.5
2017-Oct-29 13:47N 45°51' W 084°37'0 0.4
2017-Oct-29 13:30N 45°51' W 084°37'431.4
2017-Oct-29 13:21N 45°48' W 084°41'228.3
2017-Oct-29 13:17N 45°49' W 084°44'2 6.2
2017-Oct-29 13:00N 45°48' W 084°42'446.2
2017-Oct-29 12:54N 45°51' W 084°37'510.3
2017-Oct-29 12:25N 45°47' W 084°42'5327.7
2017-Oct-29 12:24N 45°51' W 084°37'0 0.1
2017-Oct-29 11:51N 45°51' W 084°37'0 0.0
2017-Oct-28 18:49N 45°51' W 084°37'4 7.3
2017-Oct-28 18:15N 45°48' W 084°41'3 1.4
2017-Oct-28 16:06N 45°50' W 084°38'418.7
2017-Oct-28 15:54N 45°48' W 084°42'2 1.6
2017-Oct-28 14:46N 45°49' W 084°43'213.4
2017-Oct-28 14:36N 45°47' W 084°43'2204.5
2017-Oct-28 14:36N 45°49' W 084°44'2 4.4
2017-Oct-28 14:14N 45°48' W 084°42'1 1.9
2017-Oct-28 13:39N 45°48' W 084°41'240.1
2017-Oct-28 13:36N 45°48' W 084°44'520.5
2017-Oct-28 13:20N 45°51' W 084°37'5197.7
2017-Oct-28 13:19N 45°49' W 084°43'214.4
2017-Oct-28 13:11N 45°48' W 084°41'0 0.3
2017-Oct-28 12:14N 45°48' W 084°41'1 0.1
2017-Oct-28 00:15N 45°47' W 084°42'1 0.6
2017-Oct-27 23:13N 45°48' W 084°42'1 1.6
2017-Oct-27 22:36N 45°47' W 084°43'1 0.4
2017-Oct-27 19:13N 45°48' W 084°42'4 9.2
2017-Oct-27 18:45N 45°51' W 084°37'5 2.3
2017-Oct-27 16:26N 45°47' W 084°43'1 0.1
2017-Oct-26 23:12N 45°48' W 084°41'0 0.5
2017-Oct-26 22:17N 45°48' W 084°42'4 9.6
2017-Oct-26 21:49N 45°51' W 084°37'611.0
2017-Oct-26 21:17N 45°47' W 084°43'2 1.9
2017-Oct-26 20:14N 45°48' W 084°41'0 0.3
2017-Oct-26 19:18N 45°48' W 084°42'1 0.5
2017-Oct-26 18:13N 45°48' W 084°42'0 0.4
2017-Oct-26 17:12N 45°48' W 084°42'0 0.3
2017-Oct-26 16:14N 45°48' W 084°42'1 0.6
2017-Oct-26 15:15N 45°48' W 084°41'411.5
2017-Oct-26 14:54N 45°51' W 084°37'542.3
2017-Oct-26 14:47N 45°49' W 084°43'2 2.9
2017-Oct-26 14:15N 45°48' W 084°42'513.2
2017-Oct-26 13:53N 45°51' W 084°37'1 4.5
2017-Oct-26 13:41N 45°51' W 084°38'524.4
2017-Oct-26 13:28N 45°47' W 084°43'210.9
2017-Oct-26 13:16N 45°49' W 084°43'2 2.1
2017-Oct-26 12:17N 45°47' W 084°43'613.3
2017-Oct-26 11:51N 45°51' W 084°37'5 0.2
2017-Oct-25 16:00N 45°52' W 084°44'3 2.8
2017-Oct-25 14:46N 45°49' W 084°44'3 0.1
2017-Oct-23 21:13N 45°52' W 084°41'4 2.2
2017-Oct-23 19:19N 45°48' W 084°42'2 0.3
2017-Oct-23 14:41N 45°49' W 084°43'2 4.2
2017-Oct-23 14:19N 45°48' W 084°42'410.1
2017-Oct-23 13:54N 45°51' W 084°37'4 6.8
2017-Oct-23 13:15N 45°48' W 084°42'0 0.2
2017-Oct-23 12:16N 45°48' W 084°42'1 0.0
2017-Oct-22 23:16N 45°47' W 084°42'510.7
2017-Oct-22 22:48N 45°51' W 084°37'5 8.2
2017-Oct-22 22:15N 45°48' W 084°42'0 0.4
2017-Oct-22 21:17N 45°47' W 084°42'510.9
2017-Oct-22 20:49N 45°51' W 084°37'5 9.5
2017-Oct-22 20:17N 45°48' W 084°42'2 1.7
2017-Oct-22 19:12N 45°49' W 084°40'3 8.2
2017-Oct-22 18:50N 45°51' W 084°37'0 0.2
2017-Oct-22 17:50N 45°51' W 084°37'4 6.6
2017-Oct-22 17:13N 45°48' W 084°41'0 0.5
2017-Oct-22 16:12N 45°49' W 084°41'3 7.0
2017-Oct-22 15:42N 45°51' W 084°37'512.4
2017-Oct-22 15:18N 45°48' W 084°43'1 4.8
2017-Oct-22 15:07N 45°48' W 084°41'2 3.8
2017-Oct-22 14:39N 45°49' W 084°44'5404.6
2017-Oct-22 14:39N 45°51' W 084°37'523.9
2017-Oct-22 14:26N 45°49' W 084°43'0 0.2
2017-Oct-22 13:41N 45°49' W 084°43'523.7
2017-Oct-22 13:29N 45°51' W 084°37'519.0
2017-Oct-22 13:14N 45°48' W 084°42'511.0
2017-Oct-22 12:48N 45°51' W 084°37'510.2
2017-Oct-22 12:17N 45°47' W 084°43'511.0
2017-Oct-22 11:48N 45°51' W 084°37'6 0.5
2017-Oct-22 00:15N 45°47' W 084°43'614.0
2017-Oct-21 23:50N 45°51' W 084°37'611.8
2017-Oct-21 23:20N 45°47' W 084°43'612.4
2017-Oct-21 22:51N 45°51' W 084°37'5 9.1
2017-Oct-21 22:16N 45°47' W 084°43'0 1.4
2017-Oct-21 22:00N 45°48' W 084°42'537.1
2017-Oct-21 21:52N 45°51' W 084°37'  
Track history (hours):
 
Tides and Currents Weather Stations Pressure Air Temp Water Temp Dewpoint Dewpoint Depression Visibility Wind Speed Wind Dir Waves Ship Positions

MiSS Margy

Owner: SHEPLERS INC, MACKINAW CITY, MI. More information available from US FCC via Universal Licensing System.

Last reported at 2017-Oct-31 21:31 UTC. Time now 2017-Nov-25 04:09 UTC.
Position N 45°48' W 084°42'.
Warning: this ship's position is 24 days out of date.

Type: Passenger vessel. MMSI: 367721890.

Date/timePositionNaut miles runAvg speedWind from/ knotsBaromVisibWave heightAir tempDewpointWater temp
2017-Oct-31 21:31N 45°48' W 084°42'127.4
2017-Oct-31 21:30N 45°49' W 084°42'1 0.2
2017-Oct-31 13:46N 45°48' W 084°42'0 0.5
2017-Oct-31 13:05N 45°48' W 084°43'0 0.5
2017-Oct-31 12:18N 45°47' W 084°43'511.2
2017-Oct-31 11:48N 45°51' W 084°37'5 0.4
2017-Oct-30 21:17N 45°47' W 084°42'511.9
2017-Oct-30 20:50N 45°51' W 084°37'6 9.8
2017-Oct-30 20:16N 45°47' W 084°43'511.3
2017-Oct-30 19:47N 45°51' W 084°37'612.1
2017-Oct-30 19:20N 45°47' W 084°43'6 2.2
2017-Oct-30 16:48N 45°51' W 084°37'5 2.2
2017-Oct-30 14:35N 45°48' W 084°42'1 0.9
2017-Oct-30 13:54N 45°47' W 084°43'1 0.1
2017-Oct-29 23:12N 45°48' W 084°42'0 0.4
2017-Oct-29 22:14N 45°48' W 084°42'512.0
2017-Oct-29 21:49N 45°51' W 084°37'5 8.5
2017-Oct-29 21:14N 45°48' W 084°42'1 0.4
2017-Oct-29 19:15N 45°48' W 084°42'1 0.6
2017-Oct-29 18:16N 45°48' W 084°41'1 0.8
2017-Oct-29 16:47N 45°48' W 084°42'4 2.8
2017-Oct-29 15:17N 45°51' W 084°39'412.9
2017-Oct-29 14:56N 45°48' W 084°42'562.9
2017-Oct-29 14:52N 45°51' W 084°37'551.4
2017-Oct-29 14:46N 45°49' W 084°43'2 3.2
2017-Oct-29 14:15N 45°47' W 084°42'0 1.2
2017-Oct-29 13:57N 45°47' W 084°43'542.5
2017-Oct-29 13:51N 45°51' W 084°40'231.5
2017-Oct-29 13:47N 45°51' W 084°37'0 0.4
2017-Oct-29 13:30N 45°51' W 084°37'431.4
2017-Oct-29 13:21N 45°48' W 084°41'228.3
2017-Oct-29 13:17N 45°49' W 084°44'2 6.2
2017-Oct-29 13:00N 45°48' W 084°42'446.2
2017-Oct-29 12:54N 45°51' W 084°37'510.3
2017-Oct-29 12:25N 45°47' W 084°42'5327.7
2017-Oct-29 12:24N 45°51' W 084°37'0 0.1
2017-Oct-29 11:51N 45°51' W 084°37'0 0.0
2017-Oct-28 18:49N 45°51' W 084°37'4 7.3
2017-Oct-28 18:15N 45°48' W 084°41'3 1.4
2017-Oct-28 16:06N 45°50' W 084°38'418.7
2017-Oct-28 15:54N 45°48' W 084°42'2 1.6
2017-Oct-28 14:46N 45°49' W 084°43'213.4
2017-Oct-28 14:36N 45°47' W 084°43'2204.5
2017-Oct-28 14:36N 45°49' W 084°44'2 4.4
2017-Oct-28 14:14N 45°48' W 084°42'1 1.9
2017-Oct-28 13:39N 45°48' W 084°41'240.1
2017-Oct-28 13:36N 45°48' W 084°44'520.5
2017-Oct-28 13:20N 45°51' W 084°37'5197.7
2017-Oct-28 13:19N 45°49' W 084°43'214.4
2017-Oct-28 13:11N 45°48' W 084°41'0 0.3
2017-Oct-28 12:14N 45°48' W 084°41'1 0.1
2017-Oct-28 00:15N 45°47' W 084°42'1 0.6
2017-Oct-27 23:13N 45°48' W 084°42'1 1.6
2017-Oct-27 22:36N 45°47' W 084°43'1 0.4
2017-Oct-27 19:13N 45°48' W 084°42'4 9.2
2017-Oct-27 18:45N 45°51' W 084°37'5 2.3
2017-Oct-27 16:26N 45°47' W 084°43'1 0.1
2017-Oct-26 23:12N 45°48' W 084°41'0 0.5
2017-Oct-26 22:17N 45°48' W 084°42'4 9.6
2017-Oct-26 21:49N 45°51' W 084°37'611.0
2017-Oct-26 21:17N 45°47' W 084°43'2 1.9
2017-Oct-26 20:14N 45°48' W 084°41'0 0.3
2017-Oct-26 19:18N 45°48' W 084°42'1 0.5
2017-Oct-26 18:13N 45°48' W 084°42'0 0.4
2017-Oct-26 17:12N 45°48' W 084°42'0 0.3
2017-Oct-26 16:14N 45°48' W 084°42'1 0.6
2017-Oct-26 15:15N 45°48' W 084°41'411.5
2017-Oct-26 14:54N 45°51' W 084°37'542.3
2017-Oct-26 14:47N 45°49' W 084°43'2 2.9
2017-Oct-26 14:15N 45°48' W 084°42'513.2
2017-Oct-26 13:53N 45°51' W 084°37'1 4.5
2017-Oct-26 13:41N 45°51' W 084°38'524.4
2017-Oct-26 13:28N 45°47' W 084°43'210.9
2017-Oct-26 13:16N 45°49' W 084°43'2 2.1
2017-Oct-26 12:17N 45°47' W 084°43'613.3
2017-Oct-26 11:51N 45°51' W 084°37'5 0.2
2017-Oct-25 16:00N 45°52' W 084°44'3 2.8
2017-Oct-25 14:46N 45°49' W 084°44'3 0.1
2017-Oct-23 21:13N 45°52' W 084°41'4 2.2
2017-Oct-23 19:19N 45°48' W 084°42'2 0.3
2017-Oct-23 14:41N 45°49' W 084°43'2 4.2
2017-Oct-23 14:19N 45°48' W 084°42'410.1
2017-Oct-23 13:54N 45°51' W 084°37'4 6.8
2017-Oct-23 13:15N 45°48' W 084°42'0 0.2
2017-Oct-23 12:16N 45°48' W 084°42'1 0.0
2017-Oct-22 23:16N 45°47' W 084°42'510.7
2017-Oct-22 22:48N 45°51' W 084°37'5 8.2
2017-Oct-22 22:15N 45°48' W 084°42'0 0.4
2017-Oct-22 21:17N 45°47' W 084°42'510.9
2017-Oct-22 20:49N 45°51' W 084°37'5 9.5
2017-Oct-22 20:17N 45°48' W 084°42'2 1.7
2017-Oct-22 19:12N 45°49' W 084°40'3 8.2
2017-Oct-22 18:50N 45°51' W 084°37'0 0.2
2017-Oct-22 17:50N 45°51' W 084°37'4 6.6
2017-Oct-22 17:13N 45°48' W 084°41'0 0.5
2017-Oct-22 16:12N 45°49' W 084°41'3 7.0
2017-Oct-22 15:42N 45°51' W 084°37'512.4
2017-Oct-22 15:18N 45°48' W 084°43'1 4.8
2017-Oct-22 15:07N 45°48' W 084°41'2 3.8
2017-Oct-22 14:39N 45°49' W 084°44'5404.6
2017-Oct-22 14:39N 45°51' W 084°37'523.9
2017-Oct-22 14:26N 45°49' W 084°43'0 0.2
2017-Oct-22 13:41N 45°49' W 084°43'523.7
2017-Oct-22 13:29N 45°51' W 084°37'519.0
2017-Oct-22 13:14N 45°48' W 084°42'511.0
2017-Oct-22 12:48N 45°51' W 084°37'510.2
2017-Oct-22 12:17N 45°47' W 084°43'511.0
2017-Oct-22 11:48N 45°51' W 084°37'6 0.5
2017-Oct-22 00:15N 45°47' W 084°43'614.0
2017-Oct-21 23:50N 45°51' W 084°37'611.8
2017-Oct-21 23:20N 45°47' W 084°43'612.4
2017-Oct-21 22:51N 45°51' W 084°37'5 9.1
2017-Oct-21 22:16N 45°47' W 084°43'0 1.4
2017-Oct-21 22:00N 45°48' W 084°42'537.1
2017-Oct-21 21:52N 45°51' W 084°37'  

Dump ship's entire track history